createdAt,value
2022-11-16T00:02:13.953Z,5.43
2022-11-16T00:04:41.857Z,4.65
2022-11-16T00:07:09.699Z,5.05
2022-11-16T00:09:37.347Z,5.32
2022-11-16T00:12:07.603Z,4.57
2022-11-16T00:14:36.504Z,4.03
2022-11-16T00:17:05.184Z,3.45
2022-11-16T00:19:32.779Z,3.38
2022-11-16T00:22:00.354Z,3.63
2022-11-16T00:24:27.898Z,3.13
2022-11-16T00:26:56.475Z,4.53
2022-11-16T00:29:26.251Z,3.17
2022-11-16T00:31:54.495Z,4.53
2022-11-16T00:34:23.829Z,4.93
2022-11-16T00:36:51.872Z,4.00
2022-11-16T00:39:19.730Z,3.55
2022-11-16T00:41:48.134Z,2.95
2022-11-16T00:44:15.886Z,2.80
2022-11-16T00:46:43.611Z,2.22
2022-11-16T00:49:11.705Z,2.77
2022-11-16T00:51:39.271Z,3.20
2022-11-16T00:54:09.656Z,2.67
2022-11-16T00:56:38.271Z,2.38
2022-11-16T00:59:07.100Z,2.80
2022-11-16T01:01:34.734Z,2.47
2022-11-16T01:04:02.696Z,3.50
2022-11-16T01:06:30.192Z,2.92
2022-11-16T01:08:57.688Z,3.17
2022-11-16T01:11:43.402Z,3.08
2022-11-16T01:14:10.935Z,3.13
2022-11-16T01:16:38.685Z,2.90
2022-11-16T01:19:06.491Z,3.88
2022-11-16T01:21:59.408Z,3.90
2022-11-16T01:24:27.899Z,3.72
2022-11-16T01:26:57.256Z,3.77
2022-11-16T01:29:30.501Z,3.58
2022-11-16T01:32:01.533Z,3.10
2022-11-16T01:34:29.107Z,4.05
2022-11-16T01:37:03.483Z,3.75
2022-11-16T01:39:34.915Z,3.40
2022-11-16T01:42:08.283Z,3.75
2022-11-16T01:44:36.214Z,2.85
2022-11-16T01:47:17.094Z,4.13
2022-11-16T01:49:50.052Z,4.00
2022-11-16T01:52:23.923Z,4.40
2022-11-16T01:54:55.884Z,3.65
2022-11-16T02:16:15.086Z,4.80
2022-11-16T02:19:40.747Z,4.22
2022-11-16T02:22:29.961Z,4.53
2022-11-16T02:25:08.412Z,3.50
2022-11-16T02:27:36.566Z,5.17
2022-11-16T02:30:05.903Z,4.95
2022-11-16T02:32:42.665Z,4.30
2022-11-16T02:35:14.435Z,4.25
2022-11-16T02:37:51.546Z,3.80
2022-11-16T02:40:22.863Z,4.73
2022-11-16T02:42:58.473Z,4.70
2022-11-16T02:45:30.769Z,4.00
2022-11-16T02:48:03.511Z,3.58
2022-11-16T02:50:33.936Z,3.97
2022-11-16T02:53:01.632Z,3.40
2022-11-16T02:55:38.611Z,4.18
2022-11-16T02:58:10.062Z,3.70
2022-11-16T03:01:10.554Z,3.17
2022-11-16T03:03:56.810Z,3.05
2022-11-16T03:06:29.400Z,2.17
2022-11-16T03:09:04.327Z,2.30
2022-11-16T03:11:55.785Z,3.20
2022-11-16T03:14:26.634Z,2.17
2022-11-16T03:16:59.379Z,2.53
2022-11-16T03:19:42.767Z,2.77
2022-11-16T03:22:41.703Z,2.63
2022-11-16T03:25:12.498Z,2.75
2022-11-16T03:28:06.351Z,2.42
2022-11-16T03:30:47.877Z,2.28
2022-11-16T03:33:26.101Z,1.60
2022-11-16T03:35:59.499Z,1.90
2022-11-16T03:38:33.822Z,1.63
2022-11-16T03:41:07.389Z,1.42
2022-11-16T03:43:37.203Z,1.48
2022-11-16T03:46:08.809Z,1.50
2022-11-16T03:48:38.371Z,1.77
2022-11-16T03:51:13.362Z,1.75
2022-11-16T03:53:41.727Z,1.40
2022-11-16T03:56:11.088Z,1.70
2022-11-16T03:58:39.631Z,1.77
2022-11-16T04:01:07.382Z,1.30
2022-11-16T04:03:35.108Z,1.50
2022-11-16T04:06:21.053Z,1.90
2022-11-16T04:09:07.770Z,1.40
2022-11-16T04:12:00.355Z,1.50
2022-11-16T04:14:47.246Z,1.17
2022-11-16T04:17:38.232Z,1.70
2022-11-16T04:20:24.713Z,1.65
2022-11-16T04:23:16.516Z,1.50
2022-11-16T04:25:47.183Z,1.40
2022-11-16T04:28:20.383Z,1.27
2022-11-16T04:31:16.224Z,1.05
2022-11-16T04:34:28.921Z,1.20
2022-11-16T04:37:17.843Z,1.35
2022-11-16T04:39:45.697Z,1.23
2022-11-16T04:42:20.124Z,1.20
2022-11-16T04:45:09.664Z,1.20
2022-11-16T04:47:44.801Z,1.60
2022-11-16T04:50:13.113Z,1.70
2022-11-16T04:52:42.199Z,2.13
2022-11-16T04:55:13.104Z,1.30
2022-11-16T04:57:41.365Z,2.22
2022-11-16T05:00:09.525Z,1.50
2022-11-16T05:02:39.464Z,1.30
2022-11-16T05:05:07.505Z,1.40
2022-11-16T05:07:36.797Z,1.90
2022-11-16T05:10:37.778Z,1.63
2022-11-16T05:13:05.249Z,1.45
2022-11-16T05:15:33.932Z,1.55
2022-11-16T05:18:01.478Z,1.20
2022-11-16T05:20:48.681Z,1.50
2022-11-16T05:23:34.583Z,1.40
2022-11-16T05:26:08.057Z,1.48
2022-11-16T05:28:35.763Z,1.13
2022-11-16T05:31:03.603Z,1.87
2022-11-16T05:33:33.429Z,0.80
2022-11-16T05:36:01.164Z,1.35
2022-11-16T05:38:28.754Z,1.35
2022-11-16T05:40:59.244Z,1.20
2022-11-16T05:43:29.898Z,1.30
2022-11-16T05:46:10.338Z,1.40
2022-11-16T05:48:39.029Z,1.40
2022-11-16T05:51:07.775Z,1.40
2022-11-16T05:53:35.749Z,1.30
2022-11-16T05:56:03.822Z,1.23
2022-11-16T05:58:36.056Z,1.60
2022-11-16T06:01:04.550Z,1.40
2022-11-16T06:03:33.216Z,1.60
2022-11-16T06:06:01.095Z,1.30
2022-11-16T06:08:30.720Z,1.20
2022-11-16T06:11:05.707Z,0.90
2022-11-16T06:13:37.257Z,1.23
2022-11-16T06:16:08.305Z,1.10
2022-11-16T06:18:41.444Z,0.90
2022-11-16T06:21:09.711Z,0.80
2022-11-16T06:23:37.732Z,0.98
2022-11-16T06:26:06.741Z,0.73
2022-11-16T06:28:36.070Z,0.50
2022-11-16T06:31:04.755Z,0.68
2022-11-16T06:33:36.543Z,0.83
2022-11-16T06:36:08.683Z,0.68
2022-11-16T06:38:37.632Z,0.90
2022-11-16T06:41:05.505Z,0.93
2022-11-16T06:43:38.728Z,0.80
2022-11-16T06:46:11.610Z,0.80
2022-11-16T06:48:40.551Z,0.90
2022-11-16T06:51:12.156Z,0.80
2022-11-16T06:53:45.198Z,0.75
2022-11-16T06:56:15.836Z,0.75
2022-11-16T06:58:53.508Z,0.68
2022-11-16T07:01:22.253Z,0.88
2022-11-16T07:03:51.259Z,1.13
2022-11-16T07:06:19.705Z,1.38
2022-11-16T07:08:47.291Z,1.13
2022-11-16T07:11:20.413Z,1.20
2022-11-16T07:13:51.265Z,0.80
2022-11-16T07:16:18.991Z,1.08
2022-11-16T07:18:56.937Z,0.93
2022-11-16T07:21:25.951Z,0.80
2022-11-16T07:23:55.830Z,1.20
2022-11-16T07:26:24.463Z,0.80
2022-11-16T07:29:01.070Z,1.40
2022-11-16T07:31:29.507Z,0.70
2022-11-16T07:34:17.237Z,0.60
2022-11-16T07:36:50.487Z,0.90
2022-11-16T07:39:18.277Z,0.90
2022-11-16T07:41:47.253Z,0.50
2022-11-16T07:44:25.219Z,0.70
2022-11-16T07:47:05.867Z,0.77
2022-11-16T07:49:35.488Z,1.00
2022-11-16T07:52:24.459Z,1.23
2022-11-16T07:55:07.117Z,1.00
2022-11-16T07:57:35.394Z,0.73
2022-11-16T08:00:07.162Z,0.60
2022-11-16T08:02:56.461Z,1.00
2022-11-16T08:05:24.640Z,0.90
2022-11-16T08:07:52.319Z,1.40
2022-11-16T08:10:23.747Z,0.75
2022-11-16T08:12:55.107Z,1.50
2022-11-16T08:15:25.893Z,0.75
2022-11-16T08:17:53.824Z,0.82
2022-11-16T08:20:22.453Z,0.50
2022-11-16T08:22:51.812Z,0.70
2022-11-16T08:25:19.583Z,0.80
2022-11-16T08:27:48.036Z,0.82
2022-11-16T08:30:18.191Z,1.00
2022-11-16T08:32:46.315Z,0.70
2022-11-16T08:35:15.528Z,0.43
2022-11-16T08:37:44.406Z,0.50
2022-11-16T08:40:12.603Z,0.70
2022-11-16T08:42:43.908Z,0.90
2022-11-16T08:45:12.853Z,0.98
2022-11-16T08:47:41.704Z,0.60
2022-11-16T08:50:26.904Z,0.95
2022-11-16T08:52:54.521Z,0.57
2022-11-16T08:55:24.296Z,0.75
2022-11-16T08:57:52.477Z,1.13
2022-11-16T09:00:20.444Z,0.70
2022-11-16T09:02:48.036Z,0.43
2022-11-16T09:05:16.454Z,0.55
2022-11-16T09:07:46.006Z,0.50
2022-11-16T09:10:14.499Z,1.05
2022-11-16T09:12:54.876Z,0.70
2022-11-16T09:15:22.852Z,0.80
2022-11-16T09:17:55.314Z,1.00
2022-11-16T09:20:23.246Z,0.50
2022-11-16T09:22:50.812Z,0.50
2022-11-16T09:25:19.420Z,0.57
2022-11-16T09:27:46.983Z,0.80
2022-11-16T09:30:17.791Z,0.50
2022-11-16T09:32:45.266Z,0.60
2022-11-16T09:35:12.937Z,0.60
2022-11-16T09:37:40.520Z,0.90
2022-11-16T09:43:07.170Z,0.70
2022-11-16T09:46:02.719Z,1.17
2022-11-16T09:48:36.201Z,1.33
2022-11-16T09:51:09.297Z,1.27
2022-11-16T09:54:12.106Z,0.80
2022-11-16T09:56:42.699Z,1.50
2022-11-16T09:59:18.495Z,1.50
2022-11-16T10:02:23.964Z,1.40
2022-11-16T10:05:03.244Z,1.20
2022-11-16T10:07:42.872Z,0.85
2022-11-16T10:10:35.202Z,1.08
2022-11-16T10:13:02.677Z,0.95
2022-11-16T10:15:55.092Z,1.38
2022-11-16T10:18:37.097Z,1.90
2022-11-16T10:21:23.922Z,1.20
2022-11-16T10:24:02.093Z,1.10
2022-11-16T10:26:35.604Z,1.45
2022-11-16T10:29:26.335Z,1.10
2022-11-16T10:32:05.749Z,1.00
2022-11-16T10:34:54.879Z,1.08
2022-11-16T10:37:28.023Z,1.20
2022-11-16T10:42:45.712Z,1.08
2022-11-16T10:45:30.705Z,0.90
2022-11-16T10:48:15.485Z,1.30
2022-11-16T10:50:48.322Z,1.40
2022-11-16T10:53:26.183Z,0.95
2022-11-16T10:56:18.059Z,1.33
2022-11-16T10:59:00.666Z,0.70
2022-11-16T11:01:34.574Z,1.13
2022-11-16T11:04:29.826Z,1.30
2022-11-16T11:07:01.505Z,1.30
2022-11-16T11:09:39.166Z,1.50
2022-11-16T11:12:36.894Z,1.05
2022-11-16T11:15:27.405Z,1.60
2022-11-16T11:18:12.454Z,1.50
2022-11-16T11:20:44.664Z,1.15
2022-11-16T11:23:22.678Z,1.20
2022-11-16T11:25:57.432Z,1.40
2022-11-16T11:28:34.219Z,1.70
2022-11-16T11:31:07.633Z,1.90
2022-11-16T11:33:39.502Z,2.17
2022-11-16T11:36:32.593Z,1.88
2022-11-16T11:39:16.444Z,2.15
2022-11-16T11:41:46.171Z,1.73
2022-11-16T11:44:13.665Z,1.98
2022-11-16T11:47:42.468Z,1.88
2022-11-16T11:49:50.203Z,1.90
2022-11-16T11:52:25.685Z,1.67
2022-11-16T11:54:56.149Z,2.00
2022-11-16T11:57:25.977Z,2.63
2022-11-16T11:59:55.560Z,1.88
2022-11-16T12:02:53.586Z,1.98
2022-11-16T12:05:20.973Z,1.70
2022-11-16T12:08:18.462Z,1.67
2022-11-16T12:11:04.447Z,2.03
2022-11-16T12:14:02.615Z,2.13
2022-11-16T12:16:47.955Z,2.10
2022-11-16T12:19:15.385Z,2.22
2022-11-16T12:22:12.105Z,1.75
2022-11-16T12:25:26.960Z,2.58
2022-11-16T12:28:04.691Z,1.73
2022-11-16T12:30:38.448Z,1.77
2022-11-16T12:33:18.517Z,2.15
2022-11-16T12:36:03.047Z,1.85
2022-11-16T12:38:42.487Z,1.70
2022-11-16T12:41:28.840Z,1.85
2022-11-16T12:44:15.111Z,1.70
2022-11-16T12:47:12.632Z,1.85
2022-11-16T12:49:58.670Z,1.77
2022-11-16T12:52:28.924Z,1.80
2022-11-16T12:55:26.408Z,1.98
2022-11-16T12:57:57.643Z,1.50
2022-11-16T13:00:26.599Z,2.22
2022-11-16T13:03:12.803Z,1.70
2022-11-16T13:06:02.848Z,2.03
2022-11-16T13:08:51.660Z,1.90
2022-11-16T13:11:32.656Z,2.38
2022-11-16T13:14:07.883Z,3.25
2022-11-16T13:16:38.245Z,3.63
2022-11-16T13:22:00.221Z,3.88
2022-11-16T13:24:55.720Z,4.38
2022-11-16T13:27:29.072Z,4.50
2022-11-16T13:30:06.753Z,5.97
2022-11-16T13:33:11.570Z,8.35
2022-11-16T13:35:39.751Z,6.57
2022-11-16T13:38:13.848Z,6.57
2022-11-16T13:40:42.672Z,4.05
2022-11-16T13:43:10.075Z,3.55
2022-11-16T13:46:01.425Z,3.30
2022-11-16T13:48:38.026Z,3.15
2022-11-16T13:51:09.501Z,3.72
2022-11-16T13:56:49.442Z,4.10
2022-11-16T13:59:24.130Z,4.70
2022-11-16T14:02:03.210Z,3.95
2022-11-16T14:04:43.612Z,4.07
2022-11-16T14:07:43.091Z,4.13
2022-11-16T14:10:34.768Z,4.07
2022-11-16T14:13:06.788Z,4.60
2022-11-16T14:15:39.005Z,4.35
2022-11-16T14:18:12.197Z,4.50
2022-11-16T14:21:05.307Z,4.85
2022-11-16T14:23:54.848Z,5.15
2022-11-16T14:26:46.480Z,4.75
2022-11-16T14:29:20.906Z,4.00
2022-11-16T14:31:52.875Z,4.00
2022-11-16T14:34:42.437Z,4.90
2022-11-16T14:37:35.244Z,3.55
2022-11-16T14:40:23.019Z,3.97
2022-11-16T14:43:15.503Z,3.60
2022-11-16T14:45:46.945Z,3.10
2022-11-16T14:48:20.081Z,3.63
2022-11-16T14:51:14.463Z,3.55
2022-11-16T14:54:31.571Z,3.63
2022-11-16T14:57:04.704Z,3.75
2022-11-16T14:59:32.957Z,3.33
2022-11-16T15:02:13.369Z,3.35
2022-11-16T15:04:40.981Z,3.55
2022-11-16T15:07:08.736Z,4.20
2022-11-16T15:09:41.439Z,4.35
2022-11-16T15:12:36.932Z,4.90
2022-11-16T15:15:25.352Z,4.10
2022-11-16T15:18:07.452Z,3.97
2022-11-16T15:20:38.457Z,4.13
2022-11-16T15:23:13.505Z,3.33
2022-11-16T15:25:43.408Z,4.00
2022-11-16T15:28:17.122Z,3.45
2022-11-16T15:31:05.182Z,3.40
2022-11-16T15:33:38.513Z,3.67
2022-11-16T15:36:25.972Z,2.97
2022-11-16T15:38:57.748Z,3.13
2022-11-16T15:41:28.348Z,2.45
2022-11-16T15:44:16.829Z,3.20
2022-11-16T15:46:50.938Z,2.70
2022-11-16T15:49:32.830Z,2.60
2022-11-16T15:52:01.923Z,2.10
2022-11-16T15:54:52.129Z,2.00
2022-11-16T15:57:21.478Z,2.13
2022-11-16T15:59:54.886Z,1.75
2022-11-16T16:02:25.220Z,1.70
2022-11-16T16:04:52.682Z,1.52
2022-11-16T16:07:41.015Z,1.40
2022-11-16T16:13:25.619Z,1.20
2022-11-16T16:16:26.550Z,1.48
2022-11-16T16:19:08.207Z,1.50
2022-11-16T16:21:47.239Z,1.75
2022-11-16T16:24:40.301Z,1.35
2022-11-16T16:27:26.393Z,1.90
2022-11-16T16:29:55.763Z,2.17
2022-11-16T16:32:28.922Z,2.28
2022-11-16T16:35:00.939Z,2.08
2022-11-16T16:37:30.926Z,2.13
2022-11-16T16:40:01.616Z,1.85
2022-11-16T16:42:31.410Z,2.05
2022-11-16T16:45:00.543Z,2.20
2022-11-16T16:47:28.510Z,1.60
2022-11-16T16:49:56.052Z,1.98
2022-11-16T16:52:27.963Z,1.30
2022-11-16T16:57:42.677Z,1.58
2022-11-16T17:00:12.237Z,1.10
2022-11-16T17:02:39.933Z,1.10
2022-11-16T17:05:07.771Z,1.20
2022-11-16T17:07:35.355Z,1.20
2022-11-16T17:10:03.153Z,1.27
2022-11-16T17:12:54.279Z,1.70
2022-11-16T17:15:22.640Z,1.70
2022-11-16T17:17:50.602Z,2.10
2022-11-16T17:20:18.172Z,1.73
2022-11-16T17:22:46.241Z,1.65
2022-11-16T17:25:16.827Z,1.45
2022-11-16T17:27:44.447Z,1.40
2022-11-16T17:30:14.142Z,1.77
2022-11-16T17:32:41.764Z,1.80
2022-11-16T17:35:10.261Z,1.70
2022-11-16T17:37:37.960Z,2.10
2022-11-16T17:40:06.082Z,1.95
2022-11-16T17:42:35.931Z,1.90
2022-11-16T17:45:04.288Z,1.73
2022-11-16T17:47:33.603Z,2.30
2022-11-16T17:50:01.332Z,2.05
2022-11-16T17:52:30.466Z,2.45
2022-11-16T17:54:59.417Z,2.70
2022-11-16T17:57:27.484Z,2.60
2022-11-16T17:59:54.996Z,2.65
2022-11-16T18:02:22.827Z,2.38
2022-11-16T18:04:51.450Z,2.55
2022-11-16T18:07:20.349Z,2.55
2022-11-16T18:09:50.449Z,2.50
2022-11-16T18:12:17.963Z,2.75
2022-11-16T18:15:06.263Z,2.95
2022-11-16T18:17:35.017Z,2.85
2022-11-16T18:20:04.997Z,2.95
2022-11-16T18:22:32.537Z,2.92
2022-11-16T18:25:00.303Z,3.00
2022-11-16T18:27:28.014Z,3.55
2022-11-16T18:29:55.600Z,2.80
2022-11-16T18:32:23.073Z,2.90
2022-11-16T18:34:50.816Z,3.42
2022-11-16T18:37:18.523Z,3.47
2022-11-16T18:39:46.081Z,3.55
2022-11-16T18:42:16.446Z,3.80
2022-11-16T18:44:43.994Z,3.00
2022-11-16T18:47:11.472Z,3.33
2022-11-16T18:52:20.172Z,3.28
2022-11-16T18:54:47.645Z,3.63
2022-11-16T18:57:15.160Z,3.67
2022-11-16T18:59:42.670Z,3.80
2022-11-16T19:02:12.871Z,3.95
2022-11-16T19:04:43.153Z,3.50
2022-11-16T19:07:10.695Z,3.88
2022-11-16T19:09:45.277Z,4.50
2022-11-16T19:12:13.897Z,4.15
2022-11-16T19:14:41.773Z,3.55
2022-11-16T19:17:10.003Z,3.72
2022-11-16T19:19:37.476Z,3.30
2022-11-16T19:22:04.940Z,4.50
2022-11-16T19:24:32.503Z,4.28
2022-11-16T19:26:59.945Z,3.80
2022-11-16T19:29:27.464Z,3.80
2022-11-16T19:31:54.951Z,3.88
2022-11-16T19:34:22.451Z,4.00
2022-11-16T19:36:49.993Z,4.07
2022-11-16T19:39:17.465Z,3.63
2022-11-16T19:41:45.063Z,3.40
2022-11-16T19:44:12.544Z,3.60
2022-11-16T19:46:40.061Z,3.65
2022-11-16T19:49:09.555Z,3.97
2022-11-16T19:51:37.067Z,3.38
2022-11-16T19:54:04.926Z,3.30
2022-11-16T19:56:32.465Z,3.75
2022-11-16T19:59:00.028Z,3.85
2022-11-16T20:01:29.688Z,4.28
2022-11-16T20:03:59.527Z,3.63
2022-11-16T20:06:35.820Z,4.15
2022-11-16T20:09:09.055Z,4.00
2022-11-16T20:11:38.294Z,4.20
2022-11-16T20:14:08.398Z,3.97
2022-11-16T20:16:39.869Z,3.42
2022-11-16T20:19:08.852Z,3.90
2022-11-16T20:21:41.496Z,3.78
2022-11-16T20:24:12.804Z,3.90
2022-11-16T20:26:48.656Z,3.58
2022-11-16T20:29:19.747Z,3.90
2022-11-16T20:31:47.794Z,4.18
2022-11-16T20:34:17.241Z,4.43
2022-11-16T20:37:43.211Z,4.18
2022-11-16T20:39:47.122Z,4.00
2022-11-16T20:42:14.591Z,3.83
2022-11-16T20:44:42.127Z,4.25
2022-11-16T20:47:09.652Z,4.07
2022-11-16T20:49:37.204Z,3.80
2022-11-16T20:52:04.815Z,4.05
2022-11-16T20:54:32.344Z,4.15
2022-11-16T20:57:00.020Z,5.00
2022-11-16T20:59:28.249Z,4.82
2022-11-16T21:01:55.885Z,4.60
2022-11-16T21:04:23.451Z,4.38
2022-11-16T21:06:51.013Z,4.97
2022-11-16T21:09:23.015Z,4.80
2022-11-16T21:12:09.013Z,4.63
2022-11-16T21:14:36.680Z,4.82
2022-11-16T21:17:04.243Z,5.18
2022-11-16T21:19:31.797Z,4.75
2022-11-16T21:21:59.236Z,4.32
2022-11-16T21:24:29.594Z,4.47
2022-11-16T21:26:57.115Z,4.00
2022-11-16T21:29:26.205Z,3.88
2022-11-16T21:31:53.605Z,3.42
2022-11-16T21:34:21.155Z,4.00
2022-11-16T21:36:48.992Z,3.15
2022-11-16T21:39:16.467Z,3.72
2022-11-16T21:41:43.959Z,3.80
2022-11-16T21:44:11.422Z,3.80
2022-11-16T21:46:38.885Z,3.33
2022-11-16T21:49:07.792Z,3.72
2022-11-16T21:51:35.302Z,3.70
2022-11-16T21:54:02.717Z,3.40
2022-11-16T21:56:30.135Z,3.78
2022-11-16T21:59:00.448Z,3.22
2022-11-16T22:01:47.876Z,3.40
2022-11-16T22:04:33.544Z,3.70
2022-11-16T22:07:19.139Z,3.92
2022-11-16T22:09:46.620Z,3.53
2022-11-16T22:12:14.049Z,2.75
2022-11-16T22:14:41.533Z,3.90
2022-11-16T22:17:10.361Z,3.53
2022-11-16T22:19:37.823Z,3.65
2022-11-16T22:22:05.248Z,3.35
2022-11-16T22:24:32.744Z,3.15
2022-11-16T22:27:00.354Z,3.53
2022-11-16T22:29:27.844Z,3.03
2022-11-16T22:31:55.473Z,3.20
2022-11-16T22:34:23.983Z,3.58
2022-11-16T22:36:51.475Z,3.75
2022-11-16T22:39:18.980Z,3.70
2022-11-16T22:41:46.478Z,3.42
2022-11-16T22:44:13.933Z,3.50
2022-11-16T22:46:44.342Z,3.65
2022-11-16T22:49:11.842Z,3.80
2022-11-16T22:51:39.774Z,3.90
2022-11-16T22:54:07.647Z,4.07
2022-11-16T22:56:35.088Z,4.05
2022-11-16T22:59:05.990Z,4.03
2022-11-16T23:01:33.464Z,4.05
2022-11-16T23:04:00.984Z,4.20
2022-11-16T23:06:29.023Z,4.00
2022-11-16T23:08:56.492Z,3.65
2022-11-16T23:11:44.183Z,4.07
2022-11-16T23:14:33.433Z,3.63
2022-11-16T23:17:02.059Z,3.97
2022-11-16T23:19:48.515Z,4.10
2022-11-16T23:22:37.661Z,3.25
2022-11-16T23:25:29.945Z,3.55
2022-11-16T23:28:07.024Z,3.80
2022-11-16T23:30:35.919Z,4.18
2022-11-16T23:33:04.473Z,4.72
2022-11-16T23:35:32.188Z,3.33
2022-11-16T23:38:00.671Z,3.78
2022-11-16T23:40:30.580Z,4.13
2022-11-16T23:43:17.513Z,4.18
2022-11-16T23:45:45.708Z,3.93
2022-11-16T23:48:15.601Z,3.42
2022-11-16T23:50:44.262Z,3.83
2022-11-16T23:53:12.472Z,3.78
2022-11-16T23:55:40.990Z,3.97
2022-11-16T23:58:13.844Z,4.27
